Eastside, Oklahoma
Current Conditions -  °F | °C
As of 12:53 PM on Thursday 18 Dec 2014 (Local Time) from KBVO Reporting Station
Haze Haze  
Wind Chill: 39°   Ceiling: 600
Heat Index: 39°   Visibility: 6mi
Dew Point: 37°   Wind: 3mph
Humidity: 93%   Direction: 360°N
Pressure: 30.2"   Gusts: NA
Location:  36.7204°N, 95.8873°W
Report Text: KBVO 181853Z 36003KT 6SM BR OVC006 04/03 A3020 RMK AO2 SLP226 T00390028
Loading
Personal Weather Stations






























Interactive Weather Map New forecast layout! Learn more

10-Day Weather Forecast

Advertisements
Track Severe Weather on mobile